sensor_id;sensor_type;location;lat;lon;timestamp;P1;durP1;ratioP1;P2;durP2;ratioP2
9465;SDS011;4771;48.726;9.006;2022-10-01T00:00:47;8.93;;;5.87;;
9465;SDS011;4771;48.726;9.006;2022-10-01T00:03:14;8.27;;;5.30;;
9465;SDS011;4771;48.726;9.006;2022-10-01T00:05:41;7.30;;;5.70;;
9465;SDS011;4771;48.726;9.006;2022-10-01T00:08:08;6.40;;;5.73;;
9465;SDS011;4771;48.726;9.006;2022-10-01T00:10:40;6.50;;;5.50;;
9465;SDS011;4771;48.726;9.006;2022-10-01T00:13:07;7.57;;;5.83;;
9465;SDS011;4771;48.726;9.006;2022-10-01T00:15:37;6.97;;;6.10;;
9465;SDS011;4771;48.726;9.006;2022-10-01T00:18:05;9.27;;;5.90;;
9465;SDS011;4771;48.726;9.006;2022-10-01T00:20:32;11.93;;;6.40;;
9465;SDS011;4771;48.726;9.006;2022-10-01T00:22:59;8.87;;;5.70;;
9465;SDS011;4771;48.726;9.006;2022-10-01T00:25:26;8.73;;;5.70;;
9465;SDS011;4771;48.726;9.006;2022-10-01T00:27:54;6.50;;;5.47;;
9465;SDS011;4771;48.726;9.006;2022-10-01T00:30:21;8.17;;;5.40;;
9465;SDS011;4771;48.726;9.006;2022-10-01T00:32:48;6.93;;;5.07;;
9465;SDS011;4771;48.726;9.006;2022-10-01T00:35:18;6.30;;;5.27;;
9465;SDS011;4771;48.726;9.006;2022-10-01T00:37:46;6.83;;;5.10;;
9465;SDS011;4771;48.726;9.006;2022-10-01T00:40:14;6.53;;;5.30;;
9465;SDS011;4771;48.726;9.006;2022-10-01T00:42:42;7.20;;;5.40;;
9465;SDS011;4771;48.726;9.006;2022-10-01T00:45:10;5.53;;;5.03;;
9465;SDS011;4771;48.726;9.006;2022-10-01T00:47:40;6.10;;;5.13;;
9465;SDS011;4771;48.726;9.006;2022-10-01T00:50:12;5.50;;;4.53;;
9465;SDS011;4771;48.726;9.006;2022-10-01T00:52:44;5.73;;;4.63;;
9465;SDS011;4771;48.726;9.006;2022-10-01T00:55:14;10.33;;;5.23;;
9465;SDS011;4771;48.726;9.006;2022-10-01T00:57:45;5.57;;;5.00;;
9465;SDS011;4771;48.726;9.006;2022-10-01T01:00:13;5.37;;;4.60;;
9465;SDS011;4771;48.726;9.006;2022-10-01T01:02:40;6.77;;;5.30;;
9465;SDS011;4771;48.726;9.006;2022-10-01T01:05:08;6.73;;;4.77;;
9465;SDS011;4771;48.726;9.006;2022-10-01T01:07:37;6.40;;;5.23;;
9465;SDS011;4771;48.726;9.006;2022-10-01T01:10:06;5.60;;;4.90;;
9465;SDS011;4771;48.726;9.006;2022-10-01T01:12:40;5.27;;;4.77;;
9465;SDS011;4771;48.726;9.006;2022-10-01T01:15:19;5.53;;;4.60;;
9465;SDS011;4771;48.726;9.006;2022-10-01T01:17:51;5.97;;;4.70;;
9465;SDS011;4771;48.726;9.006;2022-10-01T01:20:33;5.63;;;4.80;;
9465;SDS011;4771;48.726;9.006;2022-10-01T01:26:30;5.37;;;4.87;;
9465;SDS011;4771;48.726;9.006;2022-10-01T01:29:10;5.30;;;4.50;;
9465;SDS011;4771;48.726;9.006;2022-10-01T01:31:45;5.10;;;4.60;;
9465;SDS011;4771;48.726;9.006;2022-10-01T01:34:15;9.67;;;4.53;;
9465;SDS011;4771;48.726;9.006;2022-10-01T01:36:49;5.60;;;4.80;;
9465;SDS011;4771;48.726;9.006;2022-10-01T01:39:20;6.10;;;4.90;;
9465;SDS011;4771;48.726;9.006;2022-10-01T01:41:52;4.93;;;4.43;;
9465;SDS011;4771;48.726;9.006;2022-10-01T01:44:25;6.10;;;4.83;;
9465;SDS011;4771;48.726;9.006;2022-10-01T01:46:55;6.33;;;4.90;;
9465;SDS011;4771;48.726;9.006;2022-10-01T01:49:25;5.07;;;4.57;;
9465;SDS011;4771;48.726;9.006;2022-10-01T01:51:53;6.50;;;4.77;;
9465;SDS011;4771;48.726;9.006;2022-10-01T01:54:24;5.90;;;5.00;;
9465;SDS011;4771;48.726;9.006;2022-10-01T01:56:54;5.53;;;5.03;;
9465;SDS011;4771;48.726;9.006;2022-10-01T01:59:22;7.17;;;5.00;;
9465;SDS011;4771;48.726;9.006;2022-10-01T02:01:51;6.73;;;4.87;;
9465;SDS011;4771;48.726;9.006;2022-10-01T02:04:19;5.50;;;4.57;;
9465;SDS011;4771;48.726;9.006;2022-10-01T02:06:56;5.13;;;4.53;;
9465;SDS011;4771;48.726;9.006;2022-10-01T02:09:36;5.17;;;4.60;;
9465;SDS011;4771;48.726;9.006;2022-10-01T02:12:14;5.53;;;4.43;;
9465;SDS011;4771;48.726;9.006;2022-10-01T02:14:50;6.20;;;4.30;;
9465;SDS011;4771;48.726;9.006;2022-10-01T02:17:23;5.10;;;4.23;;
9465;SDS011;4771;48.726;9.006;2022-10-01T02:19:58;4.77;;;4.37;;
9465;SDS011;4771;48.726;9.006;2022-10-01T02:22:31;5.47;;;4.30;;
9465;SDS011;4771;48.726;9.006;2022-10-01T02:25:05;5.30;;;4.30;;
9465;SDS011;4771;48.726;9.006;2022-10-01T02:27:35;5.00;;;4.00;;
9465;SDS011;4771;48.726;9.006;2022-10-01T02:30:08;4.73;;;4.30;;
9465;SDS011;4771;48.726;9.006;2022-10-01T02:32:37;5.40;;;3.97;;
9465;SDS011;4771;48.726;9.006;2022-10-01T02:35:06;6.27;;;4.40;;
9465;SDS011;4771;48.726;9.006;2022-10-01T02:37:35;4.70;;;4.20;;
9465;SDS011;4771;48.726;9.006;2022-10-01T02:40:04;5.67;;;4.00;;
9465;SDS011;4771;48.726;9.006;2022-10-01T02:42:35;5.67;;;4.10;;
9465;SDS011;4771;48.726;9.006;2022-10-01T02:45:03;4.70;;;4.20;;
9465;SDS011;4771;48.726;9.006;2022-10-01T02:47:33;5.43;;;4.10;;
9465;SDS011;4771;48.726;9.006;2022-10-01T02:50:03;5.57;;;4.10;;
9465;SDS011;4771;48.726;9.006;2022-10-01T02:52:32;3.83;;;3.47;;
9465;SDS011;4771;48.726;9.006;2022-10-01T02:55:06;4.77;;;3.30;;
9465;SDS011;4771;48.726;9.006;2022-10-01T02:57:36;5.30;;;3.67;;
9465;SDS011;4771;48.726;9.006;2022-10-01T03:00:04;4.40;;;3.63;;
9465;SDS011;4771;48.726;9.006;2022-10-01T03:02:34;4.20;;;3.80;;
9465;SDS011;4771;48.726;9.006;2022-10-01T03:05:01;4.23;;;3.50;;
9465;SDS011;4771;48.726;9.006;2022-10-01T03:07:28;4.57;;;4.00;;
9465;SDS011;4771;48.726;9.006;2022-10-01T03:09:58;4.27;;;3.60;;
9465;SDS011;4771;48.726;9.006;2022-10-01T03:12:25;4.77;;;3.60;;
9465;SDS011;4771;48.726;9.006;2022-10-01T03:14:52;4.00;;;3.60;;
9465;SDS011;4771;48.726;9.006;2022-10-01T03:17:19;4.57;;;3.67;;
9465;SDS011;4771;48.726;9.006;2022-10-01T03:19:47;3.87;;;3.47;;
9465;SDS011;4771;48.726;9.006;2022-10-01T03:22:14;3.83;;;3.13;;
9465;SDS011;4771;48.726;9.006;2022-10-01T03:24:44;3.47;;;3.17;;
9465;SDS011;4771;48.726;9.006;2022-10-01T03:27:10;4.47;;;3.20;;
9465;SDS011;4771;48.726;9.006;2022-10-01T03:29:37;3.67;;;3.37;;
9465;SDS011;4771;48.726;9.006;2022-10-01T03:32:04;4.67;;;3.33;;
9465;SDS011;4771;48.726;9.006;2022-10-01T03:34:31;3.00;;;2.80;;
9465;SDS011;4771;48.726;9.006;2022-10-01T03:36:59;5.37;;;3.20;;
9465;SDS011;4771;48.726;9.006;2022-10-01T03:39:26;6.03;;;3.10;;
9465;SDS011;4771;48.726;9.006;2022-10-01T03:41:53;3.33;;;3.03;;
9465;SDS011;4771;48.726;9.006;2022-10-01T03:44:19;3.00;;;2.70;;
9465;SDS011;4771;48.726;9.006;2022-10-01T03:46:46;3.33;;;2.60;;
9465;SDS011;4771;48.726;9.006;2022-10-01T03:49:13;4.33;;;2.70;;
9465;SDS011;4771;48.726;9.006;2022-10-01T03:51:40;4.20;;;2.93;;
9465;SDS011;4771;48.726;9.006;2022-10-01T03:54:09;6.87;;;3.07;;
9465;SDS011;4771;48.726;9.006;2022-10-01T03:56:36;3.17;;;2.70;;
9465;SDS011;4771;48.726;9.006;2022-10-01T03:59:05;3.07;;;2.50;;
9465;SDS011;4771;48.726;9.006;2022-10-01T04:01:32;3.33;;;2.40;;
9465;SDS011;4771;48.726;9.006;2022-10-01T04:03:59;2.73;;;2.47;;
9465;SDS011;4771;48.726;9.006;2022-10-01T04:06:26;4.87;;;2.57;;
9465;SDS011;4771;48.726;9.006;2022-10-01T04:08:52;3.13;;;2.50;;
9465;SDS011;4771;48.726;9.006;2022-10-01T04:11:21;3.70;;;2.37;;
9465;SDS011;4771;48.726;9.006;2022-10-01T04:13:48;2.90;;;2.40;;
9465;SDS011;4771;48.726;9.006;2022-10-01T04:16:15;2.43;;;2.20;;
9465;SDS011;4771;48.726;9.006;2022-10-01T04:18:42;2.40;;;2.20;;
9465;SDS011;4771;48.726;9.006;2022-10-01T04:21:09;3.13;;;2.60;;
9465;SDS011;4771;48.726;9.006;2022-10-01T04:23:36;3.53;;;2.67;;
9465;SDS011;4771;48.726;9.006;2022-10-01T04:26:03;2.83;;;2.50;;
9465;SDS011;4771;48.726;9.006;2022-10-01T04:28:33;3.63;;;2.13;;
9465;SDS011;4771;48.726;9.006;2022-10-01T04:31:00;2.70;;;2.23;;
9465;SDS011;4771;48.726;9.006;2022-10-01T04:33:44;3.07;;;2.20;;
9465;SDS011;4771;48.726;9.006;2022-10-01T04:36:11;2.40;;;2.00;;
9465;SDS011;4771;48.726;9.006;2022-10-01T04:38:37;2.53;;;1.93;;
9465;SDS011;4771;48.726;9.006;2022-10-01T04:41:04;2.67;;;2.20;;
9465;SDS011;4771;48.726;9.006;2022-10-01T04:43:34;3.10;;;2.10;;
9465;SDS011;4771;48.726;9.006;2022-10-01T04:46:01;2.47;;;2.20;;
9465;SDS011;4771;48.726;9.006;2022-10-01T04:48:28;2.53;;;2.07;;
9465;SDS011;4771;48.726;9.006;2022-10-01T04:50:55;2.23;;;2.00;;
9465;SDS011;4771;48.726;9.006;2022-10-01T04:53:21;2.70;;;2.20;;
9465;SDS011;4771;48.726;9.006;2022-10-01T04:55:49;3.47;;;1.93;;
9465;SDS011;4771;48.726;9.006;2022-10-01T04:58:15;2.47;;;2.10;;
9465;SDS011;4771;48.726;9.006;2022-10-01T05:00:44;4.73;;;2.23;;
9465;SDS011;4771;48.726;9.006;2022-10-01T05:03:11;3.47;;;2.00;;
9465;SDS011;4771;48.726;9.006;2022-10-01T05:05:37;3.03;;;2.20;;
9465;SDS011;4771;48.726;9.006;2022-10-01T05:08:04;2.53;;;2.17;;
9465;SDS011;4771;48.726;9.006;2022-10-01T05:10:31;2.50;;;2.00;;
9465;SDS011;4771;48.726;9.006;2022-10-01T05:12:59;2.37;;;2.17;;
9465;SDS011;4771;48.726;9.006;2022-10-01T05:15:26;3.17;;;2.10;;
9465;SDS011;4771;48.726;9.006;2022-10-01T05:17:54;2.30;;;2.10;;
9465;SDS011;4771;48.726;9.006;2022-10-01T05:20:24;3.30;;;2.23;;
9465;SDS011;4771;48.726;9.006;2022-10-01T05:22:52;5.20;;;2.20;;
9465;SDS011;4771;48.726;9.006;2022-10-01T05:25:20;2.00;;;1.90;;
9465;SDS011;4771;48.726;9.006;2022-10-01T05:27:47;2.77;;;2.07;;
9465;SDS011;4771;48.726;9.006;2022-10-01T05:30:14;2.50;;;1.97;;
9465;SDS011;4771;48.726;9.006;2022-10-01T05:32:52;2.67;;;2.17;;
9465;SDS011;4771;48.726;9.006;2022-10-01T05:35:21;2.63;;;2.00;;
9465;SDS011;4771;48.726;9.006;2022-10-01T05:37:51;2.17;;;1.97;;
9465;SDS011;4771;48.726;9.006;2022-10-01T05:40:18;2.60;;;1.70;;
9465;SDS011;4771;48.726;9.006;2022-10-01T05:42:45;1.93;;;1.73;;
9465;SDS011;4771;48.726;9.006;2022-10-01T05:45:12;1.83;;;1.73;;
9465;SDS011;4771;48.726;9.006;2022-10-01T05:47:39;2.10;;;1.70;;
9465;SDS011;4771;48.726;9.006;2022-10-01T05:50:08;1.67;;;1.57;;
9465;SDS011;4771;48.726;9.006;2022-10-01T05:52:35;2.00;;;1.80;;
9465;SDS011;4771;48.726;9.006;2022-10-01T05:55:02;1.97;;;1.50;;
9465;SDS011;4771;48.726;9.006;2022-10-01T05:57:29;4.30;;;1.80;;
9465;SDS011;4771;48.726;9.006;2022-10-01T05:59:57;2.77;;;1.80;;
9465;SDS011;4771;48.726;9.006;2022-10-01T06:02:24;2.73;;;1.80;;
9465;SDS011;4771;48.726;9.006;2022-10-01T06:04:50;4.57;;;2.00;;
9465;SDS011;4771;48.726;9.006;2022-10-01T06:07:19;3.60;;;1.70;;
9465;SDS011;4771;48.726;9.006;2022-10-01T06:09:45;2.93;;;1.90;;
9465;SDS011;4771;48.726;9.006;2022-10-01T06:12:12;1.90;;;1.73;;
9465;SDS011;4771;48.726;9.006;2022-10-01T06:14:39;3.40;;;1.87;;
9465;SDS011;4771;48.726;9.006;2022-10-01T06:17:06;2.00;;;1.80;;
9465;SDS011;4771;48.726;9.006;2022-10-01T06:19:33;2.13;;;1.80;;
9465;SDS011;4771;48.726;9.006;2022-10-01T06:22:00;4.83;;;2.10;;
9465;SDS011;4771;48.726;9.006;2022-10-01T06:24:28;3.43;;;1.90;;
9465;SDS011;4771;48.726;9.006;2022-10-01T06:26:55;2.83;;;1.60;;
9465;SDS011;4771;48.726;9.006;2022-10-01T06:29:22;1.80;;;1.70;;
9465;SDS011;4771;48.726;9.006;2022-10-01T06:31:49;2.00;;;1.70;;
9465;SDS011;4771;48.726;9.006;2022-10-01T06:34:16;1.90;;;1.70;;
9465;SDS011;4771;48.726;9.006;2022-10-01T06:36:43;4.67;;;1.83;;
9465;SDS011;4771;48.726;9.006;2022-10-01T06:39:10;1.70;;;1.60;;
9465;SDS011;4771;48.726;9.006;2022-10-01T06:41:38;2.17;;;1.63;;
9465;SDS011;4771;48.726;9.006;2022-10-01T06:44:07;2.17;;;1.57;;
9465;SDS011;4771;48.726;9.006;2022-10-01T06:46:34;3.00;;;2.20;;
9465;SDS011;4771;48.726;9.006;2022-10-01T06:49:01;1.70;;;1.60;;
9465;SDS011;4771;48.726;9.006;2022-10-01T06:51:28;2.03;;;1.67;;
9465;SDS011;4771;48.726;9.006;2022-10-01T06:54:12;2.33;;;1.50;;
9465;SDS011;4771;48.726;9.006;2022-10-01T06:56:43;2.63;;;1.70;;
9465;SDS011;4771;48.726;9.006;2022-10-01T06:59:10;2.87;;;2.03;;
9465;SDS011;4771;48.726;9.006;2022-10-01T07:01:37;2.67;;;1.47;;
9465;SDS011;4771;48.726;9.006;2022-10-01T07:04:04;1.90;;;1.60;;
9465;SDS011;4771;48.726;9.006;2022-10-01T07:06:31;1.73;;;1.50;;
9465;SDS011;4771;48.726;9.006;2022-10-01T07:08:57;1.63;;;1.47;;
9465;SDS011;4771;48.726;9.006;2022-10-01T07:11:25;2.93;;;1.70;;
9465;SDS011;4771;48.726;9.006;2022-10-01T07:13:53;2.63;;;1.60;;
9465;SDS011;4771;48.726;9.006;2022-10-01T07:16:21;1.90;;;1.50;;
9465;SDS011;4771;48.726;9.006;2022-10-01T07:18:48;4.30;;;1.60;;
9465;SDS011;4771;48.726;9.006;2022-10-01T07:21:15;2.20;;;1.50;;
9465;SDS011;4771;48.726;9.006;2022-10-01T07:23:42;1.60;;;1.50;;
9465;SDS011;4771;48.726;9.006;2022-10-01T07:26:09;4.30;;;1.40;;
9465;SDS011;4771;48.726;9.006;2022-10-01T07:28:36;2.43;;;1.80;;
9465;SDS011;4771;48.726;9.006;2022-10-01T07:31:04;1.50;;;1.40;;
9465;SDS011;4771;48.726;9.006;2022-10-01T07:33:35;2.43;;;1.50;;
9465;SDS011;4771;48.726;9.006;2022-10-01T07:36:03;1.70;;;1.50;;
9465;SDS011;4771;48.726;9.006;2022-10-01T07:38:31;2.77;;;1.37;;
9465;SDS011;4771;48.726;9.006;2022-10-01T07:40:58;2.23;;;1.30;;
9465;SDS011;4771;48.726;9.006;2022-10-01T07:43:26;1.60;;;1.50;;
9465;SDS011;4771;48.726;9.006;2022-10-01T07:45:53;1.50;;;1.40;;
9465;SDS011;4771;48.726;9.006;2022-10-01T07:48:23;2.10;;;1.40;;
9465;SDS011;4771;48.726;9.006;2022-10-01T07:50:50;1.67;;;1.50;;
9465;SDS011;4771;48.726;9.006;2022-10-01T07:53:17;4.23;;;1.80;;
9465;SDS011;4771;48.726;9.006;2022-10-01T07:55:44;2.00;;;1.50;;
9465;SDS011;4771;48.726;9.006;2022-10-01T07:58:11;4.73;;;1.80;;
9465;SDS011;4771;48.726;9.006;2022-10-01T08:00:38;5.07;;;1.70;;
9465;SDS011;4771;48.726;9.006;2022-10-01T08:03:05;2.07;;;1.40;;
9465;SDS011;4771;48.726;9.006;2022-10-01T08:05:33;3.30;;;1.83;;
9465;SDS011;4771;48.726;9.006;2022-10-01T08:08:02;3.20;;;1.60;;
9465;SDS011;4771;48.726;9.006;2022-10-01T08:10:31;3.63;;;1.70;;
9465;SDS011;4771;48.726;9.006;2022-10-01T08:13:00;1.50;;;1.40;;
9465;SDS011;4771;48.726;9.006;2022-10-01T08:15:30;2.40;;;1.80;;
9465;SDS011;4771;48.726;9.006;2022-10-01T08:17:59;2.10;;;1.90;;
9465;SDS011;4771;48.726;9.006;2022-10-01T08:20:26;3.67;;;1.87;;
9465;SDS011;4771;48.726;9.006;2022-10-01T08:22:54;2.40;;;1.70;;
9465;SDS011;4771;48.726;9.006;2022-10-01T08:25:27;4.43;;;1.90;;
9465;SDS011;4771;48.726;9.006;2022-10-01T08:27:54;3.77;;;1.80;;
9465;SDS011;4771;48.726;9.006;2022-10-01T08:30:20;2.33;;;1.90;;
9465;SDS011;4771;48.726;9.006;2022-10-01T08:32:47;2.03;;;1.73;;
9465;SDS011;4771;48.726;9.006;2022-10-01T08:35:18;3.10;;;1.70;;
9465;SDS011;4771;48.726;9.006;2022-10-01T08:37:45;2.43;;;1.57;;
9465;SDS011;4771;48.726;9.006;2022-10-01T08:40:13;3.73;;;1.77;;
9465;SDS011;4771;48.726;9.006;2022-10-01T08:42:50;5.17;;;2.00;;
9465;SDS011;4771;48.726;9.006;2022-10-01T08:45:25;2.50;;;1.70;;
9465;SDS011;4771;48.726;9.006;2022-10-01T08:47:56;1.97;;;1.60;;
9465;SDS011;4771;48.726;9.006;2022-10-01T08:50:31;3.30;;;1.90;;
9465;SDS011;4771;48.726;9.006;2022-10-01T08:53:05;4.00;;;1.80;;
9465;SDS011;4771;48.726;9.006;2022-10-01T08:55:39;1.87;;;1.70;;
9465;SDS011;4771;48.726;9.006;2022-10-01T08:58:09;5.63;;;1.90;;
9465;SDS011;4771;48.726;9.006;2022-10-01T09:00:40;3.57;;;1.80;;
9465;SDS011;4771;48.726;9.006;2022-10-01T09:03:11;2.17;;;1.80;;
9465;SDS011;4771;48.726;9.006;2022-10-01T09:05:43;2.70;;;1.63;;
9465;SDS011;4771;48.726;9.006;2022-10-01T09:08:19;2.33;;;1.63;;
9465;SDS011;4771;48.726;9.006;2022-10-01T09:11:11;3.67;;;1.77;;
9465;SDS011;4771;48.726;9.006;2022-10-01T09:16:50;2.57;;;1.97;;
9465;SDS011;4771;48.726;9.006;2022-10-01T09:19:33;2.47;;;1.80;;
9465;SDS011;4771;48.726;9.006;2022-10-01T09:22:13;1.80;;;1.30;;
9465;SDS011;4771;48.726;9.006;2022-10-01T09:24:52;1.60;;;1.50;;
9465;SDS011;4771;48.726;9.006;2022-10-01T09:27:27;2.27;;;1.30;;
9465;SDS011;4771;48.726;9.006;2022-10-01T09:29:55;2.33;;;1.50;;
9465;SDS011;4771;48.726;9.006;2022-10-01T09:32:26;1.40;;;1.30;;
9465;SDS011;4771;48.726;9.006;2022-10-01T09:34:56;1.70;;;1.30;;
9465;SDS011;4771;48.726;9.006;2022-10-01T09:37:34;1.95;;;1.50;;
9465;SDS011;4771;48.726;9.006;2022-10-01T09:40:10;1.60;;;1.30;;
9465;SDS011;4771;48.726;9.006;2022-10-01T09:42:44;1.73;;;1.30;;
9465;SDS011;4771;48.726;9.006;2022-10-01T09:45:13;1.65;;;1.50;;
9465;SDS011;4771;48.726;9.006;2022-10-01T09:47:41;1.40;;;1.30;;
9465;SDS011;4771;48.726;9.006;2022-10-01T09:50:11;1.10;;;1.00;;
9465;SDS011;4771;48.726;9.006;2022-10-01T09:52:41;1.43;;;1.17;;
9465;SDS011;4771;48.726;9.006;2022-10-01T09:55:16;1.97;;;1.07;;
9465;SDS011;4771;48.726;9.006;2022-10-01T09:57:52;2.90;;;1.50;;
9465;SDS011;4771;48.726;9.006;2022-10-01T10:00:25;2.10;;;1.27;;
9465;SDS011;4771;48.726;9.006;2022-10-01T10:02:53;3.00;;;1.20;;
9465;SDS011;4771;48.726;9.006;2022-10-01T10:05:21;1.53;;;1.33;;
9465;SDS011;4771;48.726;9.006;2022-10-01T10:07:50;2.83;;;1.20;;
9465;SDS011;4771;48.726;9.006;2022-10-01T10:10:19;6.33;;;1.53;;
9465;SDS011;4771;48.726;9.006;2022-10-01T10:12:54;1.97;;;1.20;;
9465;SDS011;4771;48.726;9.006;2022-10-01T10:15:24;1.60;;;1.10;;
9465;SDS011;4771;48.726;9.006;2022-10-01T10:17:51;1.20;;;1.10;;
9465;SDS011;4771;48.726;9.006;2022-10-01T10:20:22;1.30;;;1.20;;
9465;SDS011;4771;48.726;9.006;2022-10-01T10:22:53;1.23;;;1.13;;
9465;SDS011;4771;48.726;9.006;2022-10-01T10:25:30;1.30;;;1.20;;
9465;SDS011;4771;48.726;9.006;2022-10-01T10:27:58;1.57;;;1.20;;
9465;SDS011;4771;48.726;9.006;2022-10-01T10:30:26;2.67;;;1.03;;
9465;SDS011;4771;48.726;9.006;2022-10-01T10:33:00;1.57;;;1.20;;
9465;SDS011;4771;48.726;9.006;2022-10-01T10:35:29;1.20;;;1.10;;
9465;SDS011;4771;48.726;9.006;2022-10-01T10:37:56;1.40;;;1.27;;
9465;SDS011;4771;48.726;9.006;2022-10-01T10:40:24;1.37;;;0.93;;
9465;SDS011;4771;48.726;9.006;2022-10-01T10:42:52;1.05;;;0.93;;
9465;SDS011;4771;48.726;9.006;2022-10-01T10:45:24;2.25;;;1.08;;
9465;SDS011;4771;48.726;9.006;2022-10-01T10:47:57;1.10;;;0.90;;
9465;SDS011;4771;48.726;9.006;2022-10-01T10:50:27;1.70;;;1.30;;
9465;SDS011;4771;48.726;9.006;2022-10-01T10:52:56;1.27;;;1.17;;
9465;SDS011;4771;48.726;9.006;2022-10-01T10:55:24;2.10;;;1.73;;
9465;SDS011;4771;48.726;9.006;2022-10-01T10:57:54;1.27;;;1.13;;
9465;SDS011;4771;48.726;9.006;2022-10-01T11:00:34;1.30;;;1.10;;
9465;SDS011;4771;48.726;9.006;2022-10-01T11:03:10;1.80;;;1.20;;
9465;SDS011;4771;48.726;9.006;2022-10-01T11:05:40;1.10;;;1.00;;
9465;SDS011;4771;48.726;9.006;2022-10-01T11:08:10;1.42;;;1.10;;
9465;SDS011;4771;48.726;9.006;2022-10-01T11:10:39;1.27;;;1.10;;
9465;SDS011;4771;48.726;9.006;2022-10-01T11:16:16;1.30;;;0.90;;
9465;SDS011;4771;48.726;9.006;2022-10-01T11:19:00;1.25;;;0.90;;
9465;SDS011;4771;48.726;9.006;2022-10-01T11:21:40;2.05;;;1.10;;
9465;SDS011;4771;48.726;9.006;2022-10-01T11:27:17;1.23;;;1.10;;
9465;SDS011;4771;48.726;9.006;2022-10-01T11:29:52;1.10;;;1.00;;
9465;SDS011;4771;48.726;9.006;2022-10-01T11:32:29;1.48;;;0.93;;
9465;SDS011;4771;48.726;9.006;2022-10-01T11:40:54;1.17;;;1.08;;
9465;SDS011;4771;48.726;9.006;2022-10-01T11:43:26;1.05;;;0.93;;
9465;SDS011;4771;48.726;9.006;2022-10-01T11:45:58;1.08;;;0.90;;
9465;SDS011;4771;48.726;9.006;2022-10-01T11:48:32;1.08;;;1.00;;
9465;SDS011;4771;48.726;9.006;2022-10-01T11:51:04;1.20;;;1.08;;
9465;SDS011;4771;48.726;9.006;2022-10-01T11:53:36;1.88;;;1.65;;
9465;SDS011;4771;48.726;9.006;2022-10-01T11:56:10;2.47;;;1.55;;
9465;SDS011;4771;48.726;9.006;2022-10-01T11:58:58;2.10;;;1.48;;
9465;SDS011;4771;48.726;9.006;2022-10-01T12:01:30;1.35;;;1.25;;
9465;SDS011;4771;48.726;9.006;2022-10-01T12:04:02;4.60;;;1.50;;
9465;SDS011;4771;48.726;9.006;2022-10-01T12:06:36;1.65;;;1.20;;
9465;SDS011;4771;48.726;9.006;2022-10-01T12:09:08;2.50;;;1.52;;
9465;SDS011;4771;48.726;9.006;2022-10-01T12:11:41;1.60;;;1.50;;
9465;SDS011;4771;48.726;9.006;2022-10-01T12:14:15;1.63;;;1.52;;
9465;SDS011;4771;48.726;9.006;2022-10-01T12:16:45;1.98;;;1.17;;
9465;SDS011;4771;48.726;9.006;2022-10-01T12:19:17;1.63;;;1.10;;
9465;SDS011;4771;48.726;9.006;2022-10-01T12:21:49;1.10;;;1.00;;
9465;SDS011;4771;48.726;9.006;2022-10-01T12:24:20;1.15;;;1.05;;
9465;SDS011;4771;48.726;9.006;2022-10-01T12:26:55;0.93;;;0.90;;
9465;SDS011;4771;48.726;9.006;2022-10-01T12:29:41;1.00;;;0.90;;
9465;SDS011;4771;48.726;9.006;2022-10-01T12:32:19;0.80;;;0.80;;
9465;SDS011;4771;48.726;9.006;2022-10-01T12:34:58;2.20;;;1.00;;
9465;SDS011;4771;48.726;9.006;2022-10-01T12:37:38;3.00;;;1.30;;
9465;SDS011;4771;48.726;9.006;2022-10-01T12:40:19;0.93;;;0.90;;
9465;SDS011;4771;48.726;9.006;2022-10-01T12:43:00;1.38;;;1.10;;
9465;SDS011;4771;48.726;9.006;2022-10-01T12:45:48;0.82;;;0.82;;
9465;SDS011;4771;48.726;9.006;2022-10-01T12:48:23;1.10;;;0.90;;
9465;SDS011;4771;48.726;9.006;2022-10-01T12:51:03;2.28;;;1.00;;
9465;SDS011;4771;48.726;9.006;2022-10-01T12:53:44;0.60;;;0.60;;
9465;SDS011;4771;48.726;9.006;2022-10-01T12:56:18;1.08;;;0.98;;
9465;SDS011;4771;48.726;9.006;2022-10-01T12:58:58;1.77;;;1.00;;
9465;SDS011;4771;48.726;9.006;2022-10-01T13:01:43;0.85;;;0.80;;
9465;SDS011;4771;48.726;9.006;2022-10-01T13:07:35;0.88;;;0.77;;
9465;SDS011;4771;48.726;9.006;2022-10-01T13:10:13;1.13;;;0.90;;
9465;SDS011;4771;48.726;9.006;2022-10-01T13:12:52;0.63;;;0.63;;
9465;SDS011;4771;48.726;9.006;2022-10-01T13:15:26;1.75;;;0.75;;
9465;SDS011;4771;48.726;9.006;2022-10-01T13:18:00;0.73;;;0.63;;
9465;SDS011;4771;48.726;9.006;2022-10-01T13:20:39;1.02;;;0.70;;
9465;SDS011;4771;48.726;9.006;2022-10-01T13:23:19;0.73;;;0.57;;
9465;SDS011;4771;48.726;9.006;2022-10-01T13:25:56;1.30;;;0.80;;
9465;SDS011;4771;48.726;9.006;2022-10-01T13:28:27;0.60;;;0.60;;
9465;SDS011;4771;48.726;9.006;2022-10-01T13:31:09;1.10;;;0.95;;
9465;SDS011;4771;48.726;9.006;2022-10-01T13:33:38;0.60;;;0.60;;
9465;SDS011;4771;48.726;9.006;2022-10-01T13:36:07;0.98;;;0.60;;
9465;SDS011;4771;48.726;9.006;2022-10-01T13:38:42;2.80;;;0.70;;
9465;SDS011;4771;48.726;9.006;2022-10-01T13:41:16;0.55;;;0.55;;
9465;SDS011;4771;48.726;9.006;2022-10-01T13:43:46;1.00;;;0.70;;
9465;SDS011;4771;48.726;9.006;2022-10-01T13:46:20;0.60;;;0.60;;
9465;SDS011;4771;48.726;9.006;2022-10-01T13:48:48;1.77;;;0.85;;
9465;SDS011;4771;48.726;9.006;2022-10-01T13:51:15;1.80;;;0.65;;
9465;SDS011;4771;48.726;9.006;2022-10-01T13:53:46;0.45;;;0.45;;
9465;SDS011;4771;48.726;9.006;2022-10-01T13:56:26;0.60;;;0.57;;
9465;SDS011;4771;48.726;9.006;2022-10-01T13:58:55;0.70;;;0.60;;
9465;SDS011;4771;48.726;9.006;2022-10-01T14:01:27;1.15;;;0.63;;
9465;SDS011;4771;48.726;9.006;2022-10-01T14:03:59;0.50;;;0.50;;
9465;SDS011;4771;48.726;9.006;2022-10-01T14:06:30;0.60;;;0.60;;
9465;SDS011;4771;48.726;9.006;2022-10-01T14:09:05;0.93;;;0.88;;
9465;SDS011;4771;48.726;9.006;2022-10-01T14:11:40;0.40;;;0.40;;
9465;SDS011;4771;48.726;9.006;2022-10-01T14:14:28;0.63;;;0.50;;
9465;SDS011;4771;48.726;9.006;2022-10-01T14:17:17;0.77;;;0.57;;
9465;SDS011;4771;48.726;9.006;2022-10-01T14:19:46;2.17;;;0.73;;
9465;SDS011;4771;48.726;9.006;2022-10-01T14:22:30;0.70;;;0.70;;
9465;SDS011;4771;48.726;9.006;2022-10-01T14:25:23;1.20;;;0.60;;
9465;SDS011;4771;48.726;9.006;2022-10-01T14:28:03;0.70;;;0.55;;
9465;SDS011;4771;48.726;9.006;2022-10-01T14:30:57;0.95;;;0.70;;
9465;SDS011;4771;48.726;9.006;2022-10-01T14:36:26;2.70;;;0.52;;
9465;SDS011;4771;48.726;9.006;2022-10-01T14:39:02;2.67;;;0.73;;
9465;SDS011;4771;48.726;9.006;2022-10-01T14:41:33;1.25;;;0.60;;
9465;SDS011;4771;48.726;9.006;2022-10-01T14:44:00;1.33;;;0.73;;
9465;SDS011;4771;48.726;9.006;2022-10-01T14:46:27;0.80;;;0.77;;
9465;SDS011;4771;48.726;9.006;2022-10-01T14:48:57;1.48;;;1.00;;
9465;SDS011;4771;48.726;9.006;2022-10-01T14:51:25;0.50;;;0.50;;
9465;SDS011;4771;48.726;9.006;2022-10-01T14:53:53;1.48;;;0.70;;
9465;SDS011;4771;48.726;9.006;2022-10-01T14:56:23;1.38;;;0.70;;
9465;SDS011;4771;48.726;9.006;2022-10-01T14:58:53;0.90;;;0.57;;
9465;SDS011;4771;48.726;9.006;2022-10-01T15:01:25;1.08;;;0.80;;
9465;SDS011;4771;48.726;9.006;2022-10-01T15:03:52;0.70;;;0.70;;
9465;SDS011;4771;48.726;9.006;2022-10-01T15:06:20;0.70;;;0.60;;
9465;SDS011;4771;48.726;9.006;2022-10-01T15:08:48;0.70;;;0.60;;
9465;SDS011;4771;48.726;9.006;2022-10-01T15:11:18;2.38;;;0.57;;
9465;SDS011;4771;48.726;9.006;2022-10-01T15:13:48;0.95;;;0.70;;
9465;SDS011;4771;48.726;9.006;2022-10-01T15:16:18;0.90;;;0.70;;
9465;SDS011;4771;48.726;9.006;2022-10-01T15:18:47;1.00;;;0.70;;
9465;SDS011;4771;48.726;9.006;2022-10-01T15:21:18;0.80;;;0.70;;
9465;SDS011;4771;48.726;9.006;2022-10-01T15:23:48;1.00;;;0.70;;
9465;SDS011;4771;48.726;9.006;2022-10-01T15:26:17;1.95;;;1.10;;
9465;SDS011;4771;48.726;9.006;2022-10-01T15:28:46;1.90;;;0.75;;
9465;SDS011;4771;48.726;9.006;2022-10-01T15:31:13;2.20;;;1.02;;
9465;SDS011;4771;48.726;9.006;2022-10-01T15:33:45;2.10;;;1.25;;
9465;SDS011;4771;48.726;9.006;2022-10-01T15:36:14;2.97;;;1.25;;
9465;SDS011;4771;48.726;9.006;2022-10-01T15:38:43;1.88;;;1.10;;
9465;SDS011;4771;48.726;9.006;2022-10-01T15:41:17;1.85;;;0.90;;
9465;SDS011;4771;48.726;9.006;2022-10-01T15:43:47;1.80;;;1.08;;
9465;SDS011;4771;48.726;9.006;2022-10-01T15:46:17;1.30;;;0.85;;
9465;SDS011;4771;48.726;9.006;2022-10-01T15:51:51;1.48;;;0.70;;
9465;SDS011;4771;48.726;9.006;2022-10-01T15:54:39;1.77;;;1.35;;
9465;SDS011;4771;48.726;9.006;2022-10-01T15:57:08;1.00;;;0.90;;
9465;SDS011;4771;48.726;9.006;2022-10-01T15:59:40;1.33;;;0.75;;
9465;SDS011;4771;48.726;9.006;2022-10-01T16:02:08;0.77;;;0.70;;
9465;SDS011;4771;48.726;9.006;2022-10-01T16:04:44;1.10;;;0.70;;